Accueil
METAR-TAF:

METAR-TAF

Aéroports :

Aéroport de Castellón-Costa Azahar

Castellón de la Plana, Espagne

latitude: 40-12-35N, longitude: 0-04-11E, altitude: 360 m

Observation

Le bulletin a été fait il y a 31 minutes, à 18:30 UTC
Vent 3 kt de nord-est, variant entre nord et est/nord-est
Température 9°C
Humidité 93%
Pression 1016 hPa
Visibilité: 9000 m
Nuages épars à une hauteur de 2100 ft
Nuages fragmentés à une hauteur de 2800 ft
Nuages fragmentés à une hauteur de 4300 ft

METAR: LECH 081830Z AUTO 05003KT 010V070 9000 SCT021 BKN028 BKN043 09/08 Q1016

Heure: 20:01 (19:01 UTC)


TAF: absent

Observations et prévisions météorologiques de plus de 4000 aéroports (messages METAR et TAF).

Les stations disponibles sont représentées par des disques jaunes et rouges sur la carte.

Passer la souris dessus pour voir le nom de la station.

Cliquer dessus pour voir les observations et prévisions météorologiques.

Pour changer de carte: cliquez sur les boutons verts avec une croix noire pour zoomer, sur le bouton vert avec un tiret pour effectuer un zoom arrière, ou sur les flèches vertes pour les cartes adjacentes.


METAR-TAF: